sensor_id;sensor_type;location;lat;lon;timestamp;P1;durP1;ratioP1;P2;durP2;ratioP2
67108;SDS011;54027;50.786;7.058;2022-12-10T00:00:52;35.72;;;18.67;;
67108;SDS011;54027;50.786;7.058;2022-12-10T00:03:17;34.10;;;19.23;;
67108;SDS011;54027;50.786;7.058;2022-12-10T00:05:43;37.15;;;19.35;;
67108;SDS011;54027;50.786;7.058;2022-12-10T00:08:08;34.50;;;19.42;;
67108;SDS011;54027;50.786;7.058;2022-12-10T00:10:33;36.83;;;21.35;;
67108;SDS011;54027;50.786;7.058;2022-12-10T00:12:59;44.05;;;23.05;;
67108;SDS011;54027;50.786;7.058;2022-12-10T00:15:24;47.78;;;23.80;;
67108;SDS011;54027;50.786;7.058;2022-12-10T00:17:49;44.17;;;23.10;;
67108;SDS011;54027;50.786;7.058;2022-12-10T00:20:15;47.17;;;23.60;;
67108;SDS011;54027;50.786;7.058;2022-12-10T00:22:40;44.70;;;22.45;;
67108;SDS011;54027;50.786;7.058;2022-12-10T00:25:06;47.70;;;24.65;;
67108;SDS011;54027;50.786;7.058;2022-12-10T00:27:31;53.85;;;27.50;;
67108;SDS011;54027;50.786;7.058;2022-12-10T00:29:57;76.85;;;30.20;;
67108;SDS011;54027;50.786;7.058;2022-12-10T00:32:22;69.20;;;32.78;;
67108;SDS011;54027;50.786;7.058;2022-12-10T00:34:47;73.57;;;31.58;;
67108;SDS011;54027;50.786;7.058;2022-12-10T00:37:13;66.70;;;29.77;;
67108;SDS011;54027;50.786;7.058;2022-12-10T00:39:38;73.47;;;32.65;;
67108;SDS011;54027;50.786;7.058;2022-12-10T00:42:03;57.67;;;26.75;;
67108;SDS011;54027;50.786;7.058;2022-12-10T00:44:29;58.78;;;25.42;;
67108;SDS011;54027;50.786;7.058;2022-12-10T00:46:54;54.17;;;26.70;;
67108;SDS011;54027;50.786;7.058;2022-12-10T00:49:20;59.38;;;30.42;;
67108;SDS011;54027;50.786;7.058;2022-12-10T00:51:48;59.95;;;27.80;;
67108;SDS011;54027;50.786;7.058;2022-12-10T00:54:13;61.30;;;27.52;;
67108;SDS011;54027;50.786;7.058;2022-12-10T00:56:39;60.47;;;28.15;;
67108;SDS011;54027;50.786;7.058;2022-12-10T00:59:04;70.85;;;32.33;;
67108;SDS011;54027;50.786;7.058;2022-12-10T01:01:31;86.07;;;35.08;;
67108;SDS011;54027;50.786;7.058;2022-12-10T01:04:00;82.68;;;33.85;;
67108;SDS011;54027;50.786;7.058;2022-12-10T01:06:29;124.47;;;36.13;;
67108;SDS011;54027;50.786;7.058;2022-12-10T01:09:01;170.98;;;40.72;;
67108;SDS011;54027;50.786;7.058;2022-12-10T01:11:29;124.78;;;37.17;;
67108;SDS011;54027;50.786;7.058;2022-12-10T01:13:56;146.35;;;41.05;;
67108;SDS011;54027;50.786;7.058;2022-12-10T01:16:22;125.93;;;38.05;;
67108;SDS011;54027;50.786;7.058;2022-12-10T01:18:48;82.90;;;33.90;;
67108;SDS011;54027;50.786;7.058;2022-12-10T01:21:15;71.10;;;29.77;;
67108;SDS011;54027;50.786;7.058;2022-12-10T01:23:43;76.40;;;33.22;;
67108;SDS011;54027;50.786;7.058;2022-12-10T01:26:11;75.55;;;31.17;;
67108;SDS011;54027;50.786;7.058;2022-12-10T01:28:39;93.47;;;34.78;;
67108;SDS011;54027;50.786;7.058;2022-12-10T01:31:10;71.03;;;30.10;;
67108;SDS011;54027;50.786;7.058;2022-12-10T01:33:40;76.47;;;32.03;;
67108;SDS011;54027;50.786;7.058;2022-12-10T01:36:07;69.05;;;29.45;;
67108;SDS011;54027;50.786;7.058;2022-12-10T01:38:35;69.03;;;30.23;;
67108;SDS011;54027;50.786;7.058;2022-12-10T01:41:02;67.72;;;30.90;;
67108;SDS011;54027;50.786;7.058;2022-12-10T01:43:46;73.13;;;31.10;;
67108;SDS011;54027;50.786;7.058;2022-12-10T01:46:13;64.85;;;28.85;;
67108;SDS011;54027;50.786;7.058;2022-12-10T01:48:38;59.08;;;29.50;;
67108;SDS011;54027;50.786;7.058;2022-12-10T01:51:03;55.75;;;27.10;;
67108;SDS011;54027;50.786;7.058;2022-12-10T01:53:29;64.43;;;31.35;;
67108;SDS011;54027;50.786;7.058;2022-12-10T01:55:55;69.97;;;30.85;;
67108;SDS011;54027;50.786;7.058;2022-12-10T01:58:20;63.95;;;29.85;;
67108;SDS011;54027;50.786;7.058;2022-12-10T02:00:50;70.95;;;30.02;;
67108;SDS011;54027;50.786;7.058;2022-12-10T02:03:44;81.75;;;31.27;;
67108;SDS011;54027;50.786;7.058;2022-12-10T02:17:40;114.10;;;35.03;;
67108;SDS011;54027;50.786;7.058;2022-12-10T02:20:53;137.00;;;35.95;;
67108;SDS011;54027;50.786;7.058;2022-12-10T02:23:10;356.48;;;54.00;;
67108;SDS011;54027;50.786;7.058;2022-12-10T02:31:14;406.45;;;57.83;;
67108;SDS011;54027;50.786;7.058;2022-12-10T02:33:43;313.58;;;48.25;;
67108;SDS011;54027;50.786;7.058;2022-12-10T02:36:16;251.27;;;44.55;;
67108;SDS011;54027;50.786;7.058;2022-12-10T02:38:45;159.60;;;39.08;;
67108;SDS011;54027;50.786;7.058;2022-12-10T02:41:16;98.07;;;34.15;;
67108;SDS011;54027;50.786;7.058;2022-12-10T02:43:45;85.50;;;32.70;;
67108;SDS011;54027;50.786;7.058;2022-12-10T02:46:14;91.03;;;30.63;;
67108;SDS011;54027;50.786;7.058;2022-12-10T02:48:41;74.93;;;31.70;;
67108;SDS011;54027;50.786;7.058;2022-12-10T02:51:07;79.43;;;31.33;;
67108;SDS011;54027;50.786;7.058;2022-12-10T02:53:32;82.55;;;30.13;;
67108;SDS011;54027;50.786;7.058;2022-12-10T02:58:56;66.93;;;27.83;;
67108;SDS011;54027;50.786;7.058;2022-12-10T03:05:02;64.45;;;29.17;;
67108;SDS011;54027;50.786;7.058;2022-12-10T03:07:08;78.20;;;31.02;;
67108;SDS011;54027;50.786;7.058;2022-12-10T03:09:40;66.18;;;28.70;;
67108;SDS011;54027;50.786;7.058;2022-12-10T03:12:17;89.38;;;30.20;;
67108;SDS011;54027;50.786;7.058;2022-12-10T03:14:50;112.40;;;31.13;;
67108;SDS011;54027;50.786;7.058;2022-12-10T03:17:19;96.00;;;29.88;;
67108;SDS011;54027;50.786;7.058;2022-12-10T03:19:45;79.35;;;29.50;;
67108;SDS011;54027;50.786;7.058;2022-12-10T03:22:15;69.55;;;28.45;;
67108;SDS011;54027;50.786;7.058;2022-12-10T03:24:43;62.80;;;27.65;;
67108;SDS011;54027;50.786;7.058;2022-12-10T03:27:09;74.07;;;32.00;;
67108;SDS011;54027;50.786;7.058;2022-12-10T03:29:38;79.18;;;30.77;;
67108;SDS011;54027;50.786;7.058;2022-12-10T03:32:09;53.55;;;26.90;;
67108;SDS011;54027;50.786;7.058;2022-12-10T03:34:35;52.30;;;26.17;;
67108;SDS011;54027;50.786;7.058;2022-12-10T03:37:02;48.92;;;25.80;;
67108;SDS011;54027;50.786;7.058;2022-12-10T03:39:29;51.63;;;26.27;;
67108;SDS011;54027;50.786;7.058;2022-12-10T03:41:55;58.55;;;27.08;;
67108;SDS011;54027;50.786;7.058;2022-12-10T03:44:28;65.50;;;30.30;;
67108;SDS011;54027;50.786;7.058;2022-12-10T03:46:54;59.05;;;30.23;;
67108;SDS011;54027;50.786;7.058;2022-12-10T03:49:20;58.05;;;27.58;;
67108;SDS011;54027;50.786;7.058;2022-12-10T03:51:45;61.28;;;29.83;;
67108;SDS011;54027;50.786;7.058;2022-12-10T03:54:10;56.80;;;25.27;;
67108;SDS011;54027;50.786;7.058;2022-12-10T03:56:36;58.72;;;28.67;;
67108;SDS011;54027;50.786;7.058;2022-12-10T03:59:02;52.55;;;26.38;;
67108;SDS011;54027;50.786;7.058;2022-12-10T04:01:27;59.15;;;27.83;;
67108;SDS011;54027;50.786;7.058;2022-12-10T04:03:52;67.88;;;28.63;;
67108;SDS011;54027;50.786;7.058;2022-12-10T04:06:18;72.30;;;29.88;;
67108;SDS011;54027;50.786;7.058;2022-12-10T04:08:44;74.00;;;30.85;;
67108;SDS011;54027;50.786;7.058;2022-12-10T04:11:11;74.32;;;29.30;;
67108;SDS011;54027;50.786;7.058;2022-12-10T04:13:37;69.55;;;31.83;;
67108;SDS011;54027;50.786;7.058;2022-12-10T04:16:22;76.90;;;28.93;;
67108;SDS011;54027;50.786;7.058;2022-12-10T04:18:56;75.50;;;29.05;;
67108;SDS011;54027;50.786;7.058;2022-12-10T04:21:28;53.95;;;24.38;;
67108;SDS011;54027;50.786;7.058;2022-12-10T04:24:14;64.88;;;28.85;;
67108;SDS011;54027;50.786;7.058;2022-12-10T04:27:00;64.78;;;29.15;;
67108;SDS011;54027;50.786;7.058;2022-12-10T04:29:29;51.75;;;25.27;;
67108;SDS011;54027;50.786;7.058;2022-12-10T04:31:55;64.10;;;28.90;;
67108;SDS011;54027;50.786;7.058;2022-12-10T04:34:22;54.08;;;26.38;;
67108;SDS011;54027;50.786;7.058;2022-12-10T04:36:48;63.58;;;28.83;;
67108;SDS011;54027;50.786;7.058;2022-12-10T04:39:14;63.53;;;29.90;;
67108;SDS011;54027;50.786;7.058;2022-12-10T04:41:40;60.10;;;26.40;;
67108;SDS011;54027;50.786;7.058;2022-12-10T04:44:07;60.08;;;27.13;;
67108;SDS011;54027;50.786;7.058;2022-12-10T04:46:32;47.17;;;23.52;;
67108;SDS011;54027;50.786;7.058;2022-12-10T04:48:58;57.33;;;24.95;;
67108;SDS011;54027;50.786;7.058;2022-12-10T04:51:23;59.20;;;28.05;;
67108;SDS011;54027;50.786;7.058;2022-12-10T04:53:49;55.90;;;26.23;;
67108;SDS011;54027;50.786;7.058;2022-12-10T04:56:14;53.72;;;27.48;;
67108;SDS011;54027;50.786;7.058;2022-12-10T04:58:39;52.75;;;25.90;;
67108;SDS011;54027;50.786;7.058;2022-12-10T05:01:08;57.85;;;28.13;;
67108;SDS011;54027;50.786;7.058;2022-12-10T05:03:35;63.20;;;30.38;;
67108;SDS011;54027;50.786;7.058;2022-12-10T05:06:01;61.47;;;30.05;;
67108;SDS011;54027;50.786;7.058;2022-12-10T05:08:28;85.85;;;32.25;;
67108;SDS011;54027;50.786;7.058;2022-12-10T05:10:54;84.97;;;32.50;;
67108;SDS011;54027;50.786;7.058;2022-12-10T05:13:19;81.55;;;29.65;;
67108;SDS011;54027;50.786;7.058;2022-12-10T05:15:45;72.97;;;30.15;;
67108;SDS011;54027;50.786;7.058;2022-12-10T05:18:10;80.10;;;30.27;;
67108;SDS011;54027;50.786;7.058;2022-12-10T05:20:36;76.50;;;29.67;;
67108;SDS011;54027;50.786;7.058;2022-12-10T05:23:01;53.95;;;26.10;;
67108;SDS011;54027;50.786;7.058;2022-12-10T05:25:45;40.88;;;22.75;;
67108;SDS011;54027;50.786;7.058;2022-12-10T05:28:22;44.77;;;22.77;;
67108;SDS011;54027;50.786;7.058;2022-12-10T05:30:47;45.85;;;23.30;;
67108;SDS011;54027;50.786;7.058;2022-12-10T05:33:13;42.20;;;23.90;;
67108;SDS011;54027;50.786;7.058;2022-12-10T05:35:39;47.20;;;24.13;;
67108;SDS011;54027;50.786;7.058;2022-12-10T05:38:04;45.50;;;22.98;;
67108;SDS011;54027;50.786;7.058;2022-12-10T05:40:30;46.50;;;23.52;;
67108;SDS011;54027;50.786;7.058;2022-12-10T05:42:59;39.08;;;21.38;;
67108;SDS011;54027;50.786;7.058;2022-12-10T05:45:24;44.60;;;22.85;;
67108;SDS011;54027;50.786;7.058;2022-12-10T05:47:50;46.78;;;23.20;;
67108;SDS011;54027;50.786;7.058;2022-12-10T05:50:15;42.70;;;22.33;;
67108;SDS011;54027;50.786;7.058;2022-12-10T05:52:40;44.35;;;23.45;;
67108;SDS011;54027;50.786;7.058;2022-12-10T05:55:06;49.35;;;22.73;;
67108;SDS011;54027;50.786;7.058;2022-12-10T05:57:31;44.33;;;21.60;;
67108;SDS011;54027;50.786;7.058;2022-12-10T05:59:57;44.08;;;21.85;;
67108;SDS011;54027;50.786;7.058;2022-12-10T06:02:22;49.97;;;23.50;;
67108;SDS011;54027;50.786;7.058;2022-12-10T06:04:48;44.97;;;23.67;;
67108;SDS011;54027;50.786;7.058;2022-12-10T06:07:13;52.05;;;24.15;;
67108;SDS011;54027;50.786;7.058;2022-12-10T06:09:38;43.17;;;22.00;;
67108;SDS011;54027;50.786;7.058;2022-12-10T06:12:04;45.03;;;21.35;;
67108;SDS011;54027;50.786;7.058;2022-12-10T06:14:29;44.25;;;21.95;;
67108;SDS011;54027;50.786;7.058;2022-12-10T06:16:55;43.40;;;20.98;;
67108;SDS011;54027;50.786;7.058;2022-12-10T06:19:20;40.75;;;21.77;;
67108;SDS011;54027;50.786;7.058;2022-12-10T06:21:45;42.45;;;22.35;;
67108;SDS011;54027;50.786;7.058;2022-12-10T06:24:11;46.33;;;22.73;;
67108;SDS011;54027;50.786;7.058;2022-12-10T06:26:36;40.53;;;22.10;;
67108;SDS011;54027;50.786;7.058;2022-12-10T06:29:01;44.25;;;22.40;;
67108;SDS011;54027;50.786;7.058;2022-12-10T06:31:29;46.78;;;23.98;;
67108;SDS011;54027;50.786;7.058;2022-12-10T06:33:55;46.83;;;23.30;;
67108;SDS011;54027;50.786;7.058;2022-12-10T06:36:20;44.60;;;23.35;;
67108;SDS011;54027;50.786;7.058;2022-12-10T06:38:46;43.88;;;21.13;;
67108;SDS011;54027;50.786;7.058;2022-12-10T06:41:13;40.88;;;22.67;;
67108;SDS011;54027;50.786;7.058;2022-12-10T06:43:40;47.95;;;23.33;;
67108;SDS011;54027;50.786;7.058;2022-12-10T06:46:13;40.30;;;20.83;;
67108;SDS011;54027;50.786;7.058;2022-12-10T06:48:40;47.88;;;23.60;;
67108;SDS011;54027;50.786;7.058;2022-12-10T06:51:06;45.15;;;22.38;;
67108;SDS011;54027;50.786;7.058;2022-12-10T06:53:32;43.70;;;22.23;;
67108;SDS011;54027;50.786;7.058;2022-12-10T06:55:59;48.67;;;24.27;;
67108;SDS011;54027;50.786;7.058;2022-12-10T06:58:27;45.03;;;23.08;;
67108;SDS011;54027;50.786;7.058;2022-12-10T07:00:53;44.83;;;22.67;;
67108;SDS011;54027;50.786;7.058;2022-12-10T07:03:19;43.45;;;22.40;;
67108;SDS011;54027;50.786;7.058;2022-12-10T07:05:44;47.45;;;22.05;;
67108;SDS011;54027;50.786;7.058;2022-12-10T07:08:10;38.45;;;20.92;;
67108;SDS011;54027;50.786;7.058;2022-12-10T07:10:36;42.38;;;22.55;;
67108;SDS011;54027;50.786;7.058;2022-12-10T07:13:02;37.40;;;20.95;;
67108;SDS011;54027;50.786;7.058;2022-12-10T07:15:27;38.08;;;20.42;;
67108;SDS011;54027;50.786;7.058;2022-12-10T07:17:53;40.60;;;20.63;;
67108;SDS011;54027;50.786;7.058;2022-12-10T07:20:19;39.50;;;20.67;;
67108;SDS011;54027;50.786;7.058;2022-12-10T07:22:44;37.70;;;20.33;;
67108;SDS011;54027;50.786;7.058;2022-12-10T07:25:10;41.60;;;21.55;;
67108;SDS011;54027;50.786;7.058;2022-12-10T07:27:35;38.25;;;19.38;;
67108;SDS011;54027;50.786;7.058;2022-12-10T07:30:01;37.00;;;19.65;;
67108;SDS011;54027;50.786;7.058;2022-12-10T07:32:27;34.28;;;18.45;;
67108;SDS011;54027;50.786;7.058;2022-12-10T07:34:53;39.50;;;20.80;;
67108;SDS011;54027;50.786;7.058;2022-12-10T07:37:18;44.45;;;22.13;;
67108;SDS011;54027;50.786;7.058;2022-12-10T07:39:43;35.53;;;18.98;;
67108;SDS011;54027;50.786;7.058;2022-12-10T07:42:09;37.38;;;20.10;;
67108;SDS011;54027;50.786;7.058;2022-12-10T07:44:34;36.28;;;20.00;;
67108;SDS011;54027;50.786;7.058;2022-12-10T07:47:00;38.88;;;21.38;;
67108;SDS011;54027;50.786;7.058;2022-12-10T07:49:25;36.60;;;18.33;;
67108;SDS011;54027;50.786;7.058;2022-12-10T07:51:51;36.03;;;19.88;;
67108;SDS011;54027;50.786;7.058;2022-12-10T07:54:16;34.90;;;19.58;;
67108;SDS011;54027;50.786;7.058;2022-12-10T07:56:42;38.28;;;19.92;;
67108;SDS011;54027;50.786;7.058;2022-12-10T07:59:08;37.70;;;20.65;;
67108;SDS011;54027;50.786;7.058;2022-12-10T08:01:34;43.35;;;22.17;;
67108;SDS011;54027;50.786;7.058;2022-12-10T08:03:59;42.10;;;22.40;;
67108;SDS011;54027;50.786;7.058;2022-12-10T08:06:25;38.60;;;21.42;;
67108;SDS011;54027;50.786;7.058;2022-12-10T08:08:52;40.13;;;21.33;;
67108;SDS011;54027;50.786;7.058;2022-12-10T08:11:18;40.05;;;20.75;;
67108;SDS011;54027;50.786;7.058;2022-12-10T08:13:45;40.72;;;22.02;;
67108;SDS011;54027;50.786;7.058;2022-12-10T08:16:21;41.42;;;21.95;;
67108;SDS011;54027;50.786;7.058;2022-12-10T08:18:50;37.45;;;20.70;;
67108;SDS011;54027;50.786;7.058;2022-12-10T08:21:16;37.72;;;21.02;;
67108;SDS011;54027;50.786;7.058;2022-12-10T08:23:43;44.78;;;22.08;;
67108;SDS011;54027;50.786;7.058;2022-12-10T08:26:11;36.78;;;20.77;;
67108;SDS011;54027;50.786;7.058;2022-12-10T08:28:41;43.38;;;21.95;;
67108;SDS011;54027;50.786;7.058;2022-12-10T08:31:08;40.35;;;21.48;;
67108;SDS011;54027;50.786;7.058;2022-12-10T08:33:37;41.78;;;20.52;;
67108;SDS011;54027;50.786;7.058;2022-12-10T08:36:03;41.78;;;21.17;;
67108;SDS011;54027;50.786;7.058;2022-12-10T08:38:30;38.35;;;21.10;;
67108;SDS011;54027;50.786;7.058;2022-12-10T08:40:56;40.80;;;22.10;;
67108;SDS011;54027;50.786;7.058;2022-12-10T08:43:22;42.30;;;23.92;;
67108;SDS011;54027;50.786;7.058;2022-12-10T08:45:47;43.20;;;22.77;;
67108;SDS011;54027;50.786;7.058;2022-12-10T08:48:12;42.35;;;22.63;;
67108;SDS011;54027;50.786;7.058;2022-12-10T08:50:38;44.63;;;23.00;;
67108;SDS011;54027;50.786;7.058;2022-12-10T08:53:04;41.97;;;22.23;;
67108;SDS011;54027;50.786;7.058;2022-12-10T08:55:29;46.40;;;23.73;;
67108;SDS011;54027;50.786;7.058;2022-12-10T08:57:58;43.80;;;23.55;;
67108;SDS011;54027;50.786;7.058;2022-12-10T09:00:24;44.05;;;22.30;;
67108;SDS011;54027;50.786;7.058;2022-12-10T09:02:50;47.30;;;24.60;;
67108;SDS011;54027;50.786;7.058;2022-12-10T09:05:16;42.22;;;22.75;;
67108;SDS011;54027;50.786;7.058;2022-12-10T09:07:42;45.15;;;23.20;;
67108;SDS011;54027;50.786;7.058;2022-12-10T09:10:09;48.42;;;23.88;;
67108;SDS011;54027;50.786;7.058;2022-12-10T09:12:36;44.95;;;23.33;;
67108;SDS011;54027;50.786;7.058;2022-12-10T09:15:02;44.88;;;23.27;;
67108;SDS011;54027;50.786;7.058;2022-12-10T09:17:28;50.35;;;23.98;;
67108;SDS011;54027;50.786;7.058;2022-12-10T09:19:53;45.85;;;24.05;;
67108;SDS011;54027;50.786;7.058;2022-12-10T09:22:19;44.83;;;24.10;;
67108;SDS011;54027;50.786;7.058;2022-12-10T09:24:44;42.40;;;22.77;;
67108;SDS011;54027;50.786;7.058;2022-12-10T09:27:10;37.70;;;20.95;;
67108;SDS011;54027;50.786;7.058;2022-12-10T09:29:35;41.75;;;23.08;;
67108;SDS011;54027;50.786;7.058;2022-12-10T09:32:00;40.63;;;22.73;;
67108;SDS011;54027;50.786;7.058;2022-12-10T09:34:26;46.00;;;24.05;;
67108;SDS011;54027;50.786;7.058;2022-12-10T09:36:51;48.35;;;24.30;;
67108;SDS011;54027;50.786;7.058;2022-12-10T09:39:16;46.33;;;24.15;;
67108;SDS011;54027;50.786;7.058;2022-12-10T09:44:47;48.28;;;24.40;;
67108;SDS011;54027;50.786;7.058;2022-12-10T09:47:17;52.65;;;27.50;;
67108;SDS011;54027;50.786;7.058;2022-12-10T09:52:28;41.13;;;22.48;;
67108;SDS011;54027;50.786;7.058;2022-12-10T09:55:02;48.28;;;24.27;;
67108;SDS011;54027;50.786;7.058;2022-12-10T09:57:42;35.17;;;20.13;;
67108;SDS011;54027;50.786;7.058;2022-12-10T10:02:37;52.85;;;27.67;;
67108;SDS011;54027;50.786;7.058;2022-12-10T10:07:32;60.00;;;28.58;;
67108;SDS011;54027;50.786;7.058;2022-12-10T10:10:03;60.38;;;28.55;;
67108;SDS011;54027;50.786;7.058;2022-12-10T10:12:31;55.92;;;28.65;;
67108;SDS011;54027;50.786;7.058;2022-12-10T10:14:59;73.15;;;34.25;;
67108;SDS011;54027;50.786;7.058;2022-12-10T10:17:41;70.70;;;32.95;;
67108;SDS011;54027;50.786;7.058;2022-12-10T10:20:10;54.03;;;28.00;;
67108;SDS011;54027;50.786;7.058;2022-12-10T10:22:37;46.38;;;24.15;;
67108;SDS011;54027;50.786;7.058;2022-12-10T10:25:04;54.88;;;29.60;;
67108;SDS011;54027;50.786;7.058;2022-12-10T10:27:31;50.40;;;26.65;;
67108;SDS011;54027;50.786;7.058;2022-12-10T10:30:00;53.50;;;27.02;;
67108;SDS011;54027;50.786;7.058;2022-12-10T10:35:03;54.85;;;28.67;;
67108;SDS011;54027;50.786;7.058;2022-12-10T10:40:01;56.63;;;28.35;;
67108;SDS011;54027;50.786;7.058;2022-12-10T10:42:40;51.00;;;26.95;;
67108;SDS011;54027;50.786;7.058;2022-12-10T10:48:06;53.85;;;27.17;;
67108;SDS011;54027;50.786;7.058;2022-12-10T10:50:37;58.97;;;27.50;;
67108;SDS011;54027;50.786;7.058;2022-12-10T10:55:55;51.47;;;26.20;;
67108;SDS011;54027;50.786;7.058;2022-12-10T10:58:35;55.47;;;28.38;;
67108;SDS011;54027;50.786;7.058;2022-12-10T11:01:04;60.45;;;28.20;;
67108;SDS011;54027;50.786;7.058;2022-12-10T11:03:33;56.35;;;30.13;;
67108;SDS011;54027;50.786;7.058;2022-12-10T11:06:00;58.25;;;29.08;;
67108;SDS011;54027;50.786;7.058;2022-12-10T11:08:30;60.33;;;28.67;;
67108;SDS011;54027;50.786;7.058;2022-12-10T11:11:09;57.78;;;30.15;;
67108;SDS011;54027;50.786;7.058;2022-12-10T11:13:37;56.30;;;27.50;;
67108;SDS011;54027;50.786;7.058;2022-12-10T11:18:38;44.85;;;22.95;;
67108;SDS011;54027;50.786;7.058;2022-12-10T11:23:36;47.88;;;24.13;;
67108;SDS011;54027;50.786;7.058;2022-12-10T11:34:14;45.97;;;23.70;;
67108;SDS011;54027;50.786;7.058;2022-12-10T11:42:44;38.25;;;20.42;;
67108;SDS011;54027;50.786;7.058;2022-12-10T11:50:49;47.88;;;22.60;;
67108;SDS011;54027;50.786;7.058;2022-12-10T12:10:11;40.80;;;22.80;;
67108;SDS011;54027;50.786;7.058;2022-12-10T12:13:05;40.38;;;19.75;;
67108;SDS011;54027;50.786;7.058;2022-12-10T12:15:43;40.50;;;20.17;;
67108;SDS011;54027;50.786;7.058;2022-12-10T12:18:27;40.10;;;20.95;;
67108;SDS011;54027;50.786;7.058;2022-12-10T12:21:06;41.83;;;22.05;;
67108;SDS011;54027;50.786;7.058;2022-12-10T12:26:41;39.55;;;19.77;;
67108;SDS011;54027;50.786;7.058;2022-12-10T12:30:05;48.35;;;22.58;;
67108;SDS011;54027;50.786;7.058;2022-12-10T12:32:21;50.10;;;23.23;;
67108;SDS011;54027;50.786;7.058;2022-12-10T12:37:36;51.10;;;26.70;;
67108;SDS011;54027;50.786;7.058;2022-12-10T12:40:27;44.92;;;23.52;;
67108;SDS011;54027;50.786;7.058;2022-12-10T12:43:12;49.15;;;27.77;;
67108;SDS011;54027;50.786;7.058;2022-12-10T12:45:43;50.42;;;24.08;;
67108;SDS011;54027;50.786;7.058;2022-12-10T12:51:09;51.00;;;24.50;;
67108;SDS011;54027;50.786;7.058;2022-12-10T12:53:47;48.97;;;22.92;;
67108;SDS011;54027;50.786;7.058;2022-12-10T13:05:01;47.70;;;26.58;;
67108;SDS011;54027;50.786;7.058;2022-12-10T13:07:32;46.55;;;24.02;;
67108;SDS011;54027;50.786;7.058;2022-12-10T13:12:31;49.40;;;25.88;;
67108;SDS011;54027;50.786;7.058;2022-12-10T13:23:52;53.30;;;24.55;;
67108;SDS011;54027;50.786;7.058;2022-12-10T13:28:51;58.22;;;29.40;;
67108;SDS011;54027;50.786;7.058;2022-12-10T13:31:20;64.55;;;28.83;;
67108;SDS011;54027;50.786;7.058;2022-12-10T13:36:27;50.67;;;25.80;;
67108;SDS011;54027;50.786;7.058;2022-12-10T13:44:50;55.28;;;27.08;;
67108;SDS011;54027;50.786;7.058;2022-12-10T13:50:00;52.25;;;26.67;;
67108;SDS011;54027;50.786;7.058;2022-12-10T13:55:22;50.58;;;25.10;;
67108;SDS011;54027;50.786;7.058;2022-12-10T13:58:01;48.05;;;23.45;;
67108;SDS011;54027;50.786;7.058;2022-12-10T14:00:49;50.72;;;25.35;;
67108;SDS011;54027;50.786;7.058;2022-12-10T14:06:21;50.42;;;23.80;;
67108;SDS011;54027;50.786;7.058;2022-12-10T14:08:59;53.80;;;25.48;;
67108;SDS011;54027;50.786;7.058;2022-12-10T14:11:27;52.40;;;24.67;;
67108;SDS011;54027;50.786;7.058;2022-12-10T14:13:56;47.97;;;24.13;;
67108;SDS011;54027;50.786;7.058;2022-12-10T14:16:26;52.00;;;25.33;;
67108;SDS011;54027;50.786;7.058;2022-12-10T14:18:56;46.03;;;24.83;;
67108;SDS011;54027;50.786;7.058;2022-12-10T14:21:24;51.90;;;24.88;;
67108;SDS011;54027;50.786;7.058;2022-12-10T14:23:50;47.72;;;24.70;;
67108;SDS011;54027;50.786;7.058;2022-12-10T14:28:48;51.15;;;23.90;;
67108;SDS011;54027;50.786;7.058;2022-12-10T14:31:15;45.83;;;23.67;;
67108;SDS011;54027;50.786;7.058;2022-12-10T14:33:44;49.33;;;26.45;;
67108;SDS011;54027;50.786;7.058;2022-12-10T14:39:13;62.63;;;27.13;;
67108;SDS011;54027;50.786;7.058;2022-12-10T14:41:41;47.70;;;25.27;;
67108;SDS011;54027;50.786;7.058;2022-12-10T14:44:08;53.20;;;26.27;;
67108;SDS011;54027;50.786;7.058;2022-12-10T14:46:37;107.32;;;55.47;;
67108;SDS011;54027;50.786;7.058;2022-12-10T14:49:03;93.03;;;42.35;;
67108;SDS011;54027;50.786;7.058;2022-12-10T14:51:33;81.80;;;41.22;;
67108;SDS011;54027;50.786;7.058;2022-12-10T14:54:01;53.35;;;26.23;;
67108;SDS011;54027;50.786;7.058;2022-12-10T14:56:34;59.80;;;28.23;;
67108;SDS011;54027;50.786;7.058;2022-12-10T15:01:43;58.85;;;27.23;;
67108;SDS011;54027;50.786;7.058;2022-12-10T15:04:13;63.72;;;29.90;;
67108;SDS011;54027;50.786;7.058;2022-12-10T15:06:41;139.48;;;65.07;;
67108;SDS011;54027;50.786;7.058;2022-12-10T15:09:22;159.70;;;73.10;;
67108;SDS011;54027;50.786;7.058;2022-12-10T15:11:57;90.95;;;42.63;;
67108;SDS011;54027;50.786;7.058;2022-12-10T15:14:25;110.40;;;52.20;;
67108;SDS011;54027;50.786;7.058;2022-12-10T15:16:52;101.78;;;48.17;;
67108;SDS011;54027;50.786;7.058;2022-12-10T15:21:46;92.72;;;44.53;;
67108;SDS011;54027;50.786;7.058;2022-12-10T15:26:44;57.20;;;28.90;;
67108;SDS011;54027;50.786;7.058;2022-12-10T15:31:54;109.10;;;50.25;;
67108;SDS011;54027;50.786;7.058;2022-12-10T15:34:25;101.13;;;48.70;;
67108;SDS011;54027;50.786;7.058;2022-12-10T15:36:52;90.72;;;46.30;;
67108;SDS011;54027;50.786;7.058;2022-12-10T15:39:21;67.75;;;35.60;;
67108;SDS011;54027;50.786;7.058;2022-12-10T15:41:51;76.45;;;37.13;;
67108;SDS011;54027;50.786;7.058;2022-12-10T15:46:49;68.97;;;34.03;;
67108;SDS011;54027;50.786;7.058;2022-12-10T15:49:16;65.15;;;30.90;;
67108;SDS011;54027;50.786;7.058;2022-12-10T15:51:42;60.10;;;30.95;;
67108;SDS011;54027;50.786;7.058;2022-12-10T15:56:46;54.65;;;26.10;;
67108;SDS011;54027;50.786;7.058;2022-12-10T15:59:11;62.60;;;31.55;;
67108;SDS011;54027;50.786;7.058;2022-12-10T16:01:36;56.70;;;29.83;;
67108;SDS011;54027;50.786;7.058;2022-12-10T16:04:02;69.68;;;35.17;;
67108;SDS011;54027;50.786;7.058;2022-12-10T16:06:27;80.55;;;40.03;;
67108;SDS011;54027;50.786;7.058;2022-12-10T16:08:52;92.57;;;49.25;;
67108;SDS011;54027;50.786;7.058;2022-12-10T16:11:18;66.85;;;36.67;;
67108;SDS011;54027;50.786;7.058;2022-12-10T16:13:46;58.70;;;32.05;;
67108;SDS011;54027;50.786;7.058;2022-12-10T16:16:16;61.58;;;35.03;;
67108;SDS011;54027;50.786;7.058;2022-12-10T16:18:42;65.57;;;35.08;;
67108;SDS011;54027;50.786;7.058;2022-12-10T16:21:08;70.55;;;38.67;;
67108;SDS011;54027;50.786;7.058;2022-12-10T16:23:33;68.22;;;34.45;;
67108;SDS011;54027;50.786;7.058;2022-12-10T16:26:00;64.80;;;33.22;;
67108;SDS011;54027;50.786;7.058;2022-12-10T16:28:25;65.28;;;34.30;;
67108;SDS011;54027;50.786;7.058;2022-12-10T16:30:53;70.25;;;36.15;;
67108;SDS011;54027;50.786;7.058;2022-12-10T16:33:20;67.95;;;32.13;;
67108;SDS011;54027;50.786;7.058;2022-12-10T16:35:48;77.68;;;37.83;;
67108;SDS011;54027;50.786;7.058;2022-12-10T16:38:15;75.00;;;36.13;;
67108;SDS011;54027;50.786;7.058;2022-12-10T16:40:42;56.50;;;30.48;;
67108;SDS011;54027;50.786;7.058;2022-12-10T16:43:30;52.92;;;26.15;;
67108;SDS011;54027;50.786;7.058;2022-12-10T16:45:55;64.88;;;33.83;;
67108;SDS011;54027;50.786;7.058;2022-12-10T16:48:21;61.90;;;30.05;;
67108;SDS011;54027;50.786;7.058;2022-12-10T16:50:49;65.63;;;33.67;;
67108;SDS011;54027;50.786;7.058;2022-12-10T16:53:16;57.90;;;30.10;;
67108;SDS011;54027;50.786;7.058;2022-12-10T16:55:42;62.55;;;29.38;;
67108;SDS011;54027;50.786;7.058;2022-12-10T16:58:09;56.35;;;26.17;;
67108;SDS011;54027;50.786;7.058;2022-12-10T17:00:35;56.33;;;28.50;;
67108;SDS011;54027;50.786;7.058;2022-12-10T17:03:01;55.38;;;27.15;;